sensor_id;sensor_type;location;lat;lon;timestamp;P1;durP1;ratioP1;P2;durP2;ratioP2
28762;SDS011;15918;51.270;6.522;2023-05-28T00:00:29;10.13;;;6.65;;
28762;SDS011;15918;51.270;6.522;2023-05-28T00:02:55;12.15;;;7.07;;
28762;SDS011;15918;51.270;6.522;2023-05-28T00:05:21;10.88;;;6.97;;
28762;SDS011;15918;51.270;6.522;2023-05-28T00:07:47;13.13;;;7.30;;
28762;SDS011;15918;51.270;6.522;2023-05-28T00:10:13;11.88;;;7.05;;
28762;SDS011;15918;51.270;6.522;2023-05-28T00:12:39;10.05;;;7.13;;
28762;SDS011;15918;51.270;6.522;2023-05-28T00:15:05;11.00;;;7.22;;
28762;SDS011;15918;51.270;6.522;2023-05-28T00:17:31;10.32;;;6.88;;
28762;SDS011;15918;51.270;6.522;2023-05-28T00:19:57;11.15;;;7.38;;
28762;SDS011;15918;51.270;6.522;2023-05-28T00:22:23;11.70;;;6.50;;
28762;SDS011;15918;51.270;6.522;2023-05-28T00:24:48;10.25;;;6.90;;
28762;SDS011;15918;51.270;6.522;2023-05-28T00:27:14;10.35;;;6.85;;
28762;SDS011;15918;51.270;6.522;2023-05-28T00:29:40;15.43;;;7.32;;
28762;SDS011;15918;51.270;6.522;2023-05-28T00:32:05;12.00;;;7.70;;
28762;SDS011;15918;51.270;6.522;2023-05-28T00:34:31;11.77;;;6.82;;
28762;SDS011;15918;51.270;6.522;2023-05-28T00:36:57;13.15;;;7.45;;
28762;SDS011;15918;51.270;6.522;2023-05-28T00:39:22;12.77;;;7.07;;
28762;SDS011;15918;51.270;6.522;2023-05-28T00:41:48;16.60;;;8.07;;
28762;SDS011;15918;51.270;6.522;2023-05-28T00:44:25;12.98;;;7.22;;
28762;SDS011;15918;51.270;6.522;2023-05-28T00:46:52;11.30;;;7.55;;
28762;SDS011;15918;51.270;6.522;2023-05-28T00:49:17;12.93;;;7.88;;
28762;SDS011;15918;51.270;6.522;2023-05-28T00:51:43;10.63;;;7.32;;
28762;SDS011;15918;51.270;6.522;2023-05-28T00:54:09;11.25;;;7.45;;
28762;SDS011;15918;51.270;6.522;2023-05-28T00:56:36;12.68;;;7.43;;
28762;SDS011;15918;51.270;6.522;2023-05-28T00:59:02;11.23;;;7.57;;
28762;SDS011;15918;51.270;6.522;2023-05-28T01:01:29;11.40;;;7.30;;
28762;SDS011;15918;51.270;6.522;2023-05-28T01:03:55;9.52;;;7.50;;
28762;SDS011;15918;51.270;6.522;2023-05-28T01:06:20;12.13;;;7.65;;
28762;SDS011;15918;51.270;6.522;2023-05-28T01:08:47;11.95;;;7.97;;
28762;SDS011;15918;51.270;6.522;2023-05-28T01:11:15;14.20;;;6.65;;
28762;SDS011;15918;51.270;6.522;2023-05-28T01:13:43;11.57;;;6.78;;
28762;SDS011;15918;51.270;6.522;2023-05-28T01:16:10;12.77;;;7.82;;
28762;SDS011;15918;51.270;6.522;2023-05-28T01:18:36;14.85;;;7.45;;
28762;SDS011;15918;51.270;6.522;2023-05-28T01:21:04;11.95;;;6.97;;
28762;SDS011;15918;51.270;6.522;2023-05-28T01:23:36;10.48;;;7.68;;
28762;SDS011;15918;51.270;6.522;2023-05-28T01:26:08;11.05;;;8.15;;
28762;SDS011;15918;51.270;6.522;2023-05-28T01:28:35;12.05;;;7.55;;
28762;SDS011;15918;51.270;6.522;2023-05-28T01:31:01;11.02;;;7.10;;
28762;SDS011;15918;51.270;6.522;2023-05-28T01:33:26;12.48;;;7.43;;
28762;SDS011;15918;51.270;6.522;2023-05-28T01:35:52;12.45;;;8.13;;
28762;SDS011;15918;51.270;6.522;2023-05-28T01:38:20;12.63;;;7.63;;
28762;SDS011;15918;51.270;6.522;2023-05-28T01:40:48;15.73;;;7.88;;
28762;SDS011;15918;51.270;6.522;2023-05-28T01:43:14;14.45;;;8.70;;
28762;SDS011;15918;51.270;6.522;2023-05-28T01:45:43;10.45;;;6.93;;
28762;SDS011;15918;51.270;6.522;2023-05-28T01:48:08;11.32;;;7.70;;
28762;SDS011;15918;51.270;6.522;2023-05-28T01:50:35;10.90;;;7.43;;
28762;SDS011;15918;51.270;6.522;2023-05-28T01:53:01;11.13;;;7.63;;
28762;SDS011;15918;51.270;6.522;2023-05-28T01:55:26;11.10;;;7.15;;
28762;SDS011;15918;51.270;6.522;2023-05-28T01:57:52;13.60;;;7.70;;
28762;SDS011;15918;51.270;6.522;2023-05-28T02:00:18;9.93;;;7.20;;
28762;SDS011;15918;51.270;6.522;2023-05-28T02:02:44;11.30;;;7.68;;
28762;SDS011;15918;51.270;6.522;2023-05-28T02:05:09;12.48;;;7.63;;
28762;SDS011;15918;51.270;6.522;2023-05-28T02:07:35;14.27;;;8.32;;
28762;SDS011;15918;51.270;6.522;2023-05-28T02:10:01;14.65;;;7.75;;
28762;SDS011;15918;51.270;6.522;2023-05-28T02:12:27;10.85;;;7.43;;
28762;SDS011;15918;51.270;6.522;2023-05-28T02:14:53;11.45;;;7.68;;
28762;SDS011;15918;51.270;6.522;2023-05-28T02:17:18;13.60;;;8.45;;
28762;SDS011;15918;51.270;6.522;2023-05-28T02:19:44;13.20;;;8.25;;
28762;SDS011;15918;51.270;6.522;2023-05-28T02:22:10;12.93;;;7.90;;
28762;SDS011;15918;51.270;6.522;2023-05-28T02:24:37;14.75;;;8.85;;
28762;SDS011;15918;51.270;6.522;2023-05-28T02:27:03;13.95;;;8.18;;
28762;SDS011;15918;51.270;6.522;2023-05-28T02:29:30;12.45;;;9.05;;
28762;SDS011;15918;51.270;6.522;2023-05-28T02:31:56;13.93;;;7.60;;
28762;SDS011;15918;51.270;6.522;2023-05-28T02:34:21;11.63;;;8.15;;
28762;SDS011;15918;51.270;6.522;2023-05-28T02:36:47;10.57;;;7.82;;
28762;SDS011;15918;51.270;6.522;2023-05-28T02:39:12;14.02;;;8.35;;
28762;SDS011;15918;51.270;6.522;2023-05-28T02:41:39;14.73;;;8.00;;
28762;SDS011;15918;51.270;6.522;2023-05-28T02:44:05;11.73;;;8.45;;
28762;SDS011;15918;51.270;6.522;2023-05-28T02:46:30;14.73;;;8.88;;
28762;SDS011;15918;51.270;6.522;2023-05-28T02:48:56;11.25;;;7.25;;
28762;SDS011;15918;51.270;6.522;2023-05-28T02:51:21;14.18;;;8.35;;
28762;SDS011;15918;51.270;6.522;2023-05-28T02:53:47;10.45;;;7.68;;
28762;SDS011;15918;51.270;6.522;2023-05-28T02:56:12;10.73;;;7.18;;
28762;SDS011;15918;51.270;6.522;2023-05-28T02:58:38;11.35;;;7.80;;
28762;SDS011;15918;51.270;6.522;2023-05-28T03:01:04;13.85;;;8.07;;
28762;SDS011;15918;51.270;6.522;2023-05-28T03:03:31;15.40;;;8.05;;
28762;SDS011;15918;51.270;6.522;2023-05-28T03:05:57;10.05;;;7.45;;
28762;SDS011;15918;51.270;6.522;2023-05-28T03:08:22;9.45;;;7.50;;
28762;SDS011;15918;51.270;6.522;2023-05-28T03:10:48;9.85;;;7.30;;
28762;SDS011;15918;51.270;6.522;2023-05-28T03:13:14;16.17;;;8.32;;
28762;SDS011;15918;51.270;6.522;2023-05-28T03:15:39;14.05;;;8.35;;
28762;SDS011;15918;51.270;6.522;2023-05-28T03:18:05;11.23;;;8.00;;
28762;SDS011;15918;51.270;6.522;2023-05-28T03:20:30;13.18;;;8.02;;
28762;SDS011;15918;51.270;6.522;2023-05-28T03:22:56;13.35;;;9.07;;
28762;SDS011;15918;51.270;6.522;2023-05-28T03:25:22;10.45;;;7.75;;
28762;SDS011;15918;51.270;6.522;2023-05-28T03:27:52;12.02;;;8.02;;
28762;SDS011;15918;51.270;6.522;2023-05-28T03:30:18;12.18;;;8.10;;
28762;SDS011;15918;51.270;6.522;2023-05-28T03:32:44;12.32;;;8.13;;
28762;SDS011;15918;51.270;6.522;2023-05-28T03:35:09;13.93;;;8.20;;
28762;SDS011;15918;51.270;6.522;2023-05-28T03:37:35;12.73;;;8.40;;
28762;SDS011;15918;51.270;6.522;2023-05-28T03:40:00;15.18;;;8.38;;
28762;SDS011;15918;51.270;6.522;2023-05-28T03:42:29;15.73;;;8.55;;
28762;SDS011;15918;51.270;6.522;2023-05-28T03:44:55;13.63;;;8.50;;
28762;SDS011;15918;51.270;6.522;2023-05-28T03:47:20;12.32;;;8.30;;
28762;SDS011;15918;51.270;6.522;2023-05-28T03:49:46;16.38;;;8.50;;
28762;SDS011;15918;51.270;6.522;2023-05-28T03:52:12;16.45;;;8.48;;
28762;SDS011;15918;51.270;6.522;2023-05-28T03:54:38;10.98;;;8.18;;
28762;SDS011;15918;51.270;6.522;2023-05-28T03:57:03;13.80;;;8.48;;
28762;SDS011;15918;51.270;6.522;2023-05-28T03:59:29;14.57;;;8.68;;
28762;SDS011;15918;51.270;6.522;2023-05-28T04:01:54;14.90;;;8.65;;
28762;SDS011;15918;51.270;6.522;2023-05-28T04:04:20;11.32;;;8.30;;
28762;SDS011;15918;51.270;6.522;2023-05-28T04:06:46;12.88;;;7.85;;
28762;SDS011;15918;51.270;6.522;2023-05-28T04:09:11;11.38;;;7.88;;
28762;SDS011;15918;51.270;6.522;2023-05-28T04:11:37;14.57;;;7.90;;
28762;SDS011;15918;51.270;6.522;2023-05-28T04:14:03;12.43;;;8.82;;
28762;SDS011;15918;51.270;6.522;2023-05-28T04:16:29;9.30;;;7.63;;
28762;SDS011;15918;51.270;6.522;2023-05-28T04:18:56;12.85;;;8.23;;
28762;SDS011;15918;51.270;6.522;2023-05-28T04:21:23;12.13;;;8.60;;
28762;SDS011;15918;51.270;6.522;2023-05-28T04:23:49;12.75;;;9.32;;
28762;SDS011;15918;51.270;6.522;2023-05-28T04:26:14;11.73;;;7.90;;
28762;SDS011;15918;51.270;6.522;2023-05-28T04:28:41;12.75;;;8.05;;
28762;SDS011;15918;51.270;6.522;2023-05-28T04:31:07;13.95;;;8.30;;
28762;SDS011;15918;51.270;6.522;2023-05-28T04:33:32;13.43;;;8.48;;
28762;SDS011;15918;51.270;6.522;2023-05-28T04:35:58;10.30;;;7.78;;
28762;SDS011;15918;51.270;6.522;2023-05-28T04:38:25;11.18;;;7.85;;
28762;SDS011;15918;51.270;6.522;2023-05-28T04:40:56;17.85;;;9.35;;
28762;SDS011;15918;51.270;6.522;2023-05-28T04:43:22;13.35;;;7.78;;
28762;SDS011;15918;51.270;6.522;2023-05-28T04:45:48;11.15;;;8.52;;
28762;SDS011;15918;51.270;6.522;2023-05-28T04:48:14;13.02;;;8.20;;
28762;SDS011;15918;51.270;6.522;2023-05-28T04:50:40;13.20;;;8.70;;
28762;SDS011;15918;51.270;6.522;2023-05-28T04:53:06;12.50;;;8.40;;
28762;SDS011;15918;51.270;6.522;2023-05-28T04:55:32;11.40;;;8.10;;
28762;SDS011;15918;51.270;6.522;2023-05-28T04:57:57;15.05;;;8.85;;
28762;SDS011;15918;51.270;6.522;2023-05-28T05:00:23;13.43;;;8.75;;
28762;SDS011;15918;51.270;6.522;2023-05-28T05:02:51;12.73;;;8.57;;
28762;SDS011;15918;51.270;6.522;2023-05-28T05:05:18;15.40;;;10.07;;
28762;SDS011;15918;51.270;6.522;2023-05-28T05:07:43;13.38;;;9.05;;
28762;SDS011;15918;51.270;6.522;2023-05-28T05:10:10;12.88;;;9.38;;
28762;SDS011;15918;51.270;6.522;2023-05-28T05:12:36;13.63;;;8.32;;
28762;SDS011;15918;51.270;6.522;2023-05-28T05:15:03;13.25;;;8.73;;
28762;SDS011;15918;51.270;6.522;2023-05-28T05:17:30;13.65;;;8.98;;
28762;SDS011;15918;51.270;6.522;2023-05-28T05:19:56;14.20;;;9.90;;
28762;SDS011;15918;51.270;6.522;2023-05-28T05:22:22;15.05;;;9.50;;
28762;SDS011;15918;51.270;6.522;2023-05-28T05:24:48;17.08;;;9.30;;
28762;SDS011;15918;51.270;6.522;2023-05-28T05:27:14;14.93;;;9.52;;
28762;SDS011;15918;51.270;6.522;2023-05-28T05:29:40;14.90;;;10.25;;
28762;SDS011;15918;51.270;6.522;2023-05-28T05:32:06;18.50;;;9.77;;
28762;SDS011;15918;51.270;6.522;2023-05-28T05:34:32;18.48;;;9.82;;
28762;SDS011;15918;51.270;6.522;2023-05-28T05:36:57;17.02;;;9.90;;
28762;SDS011;15918;51.270;6.522;2023-05-28T05:39:24;15.98;;;9.73;;
28762;SDS011;15918;51.270;6.522;2023-05-28T05:41:56;16.50;;;9.98;;
28762;SDS011;15918;51.270;6.522;2023-05-28T05:44:22;14.80;;;9.27;;
28762;SDS011;15918;51.270;6.522;2023-05-28T05:46:47;14.80;;;10.52;;
28762;SDS011;15918;51.270;6.522;2023-05-28T05:49:13;18.80;;;9.50;;
28762;SDS011;15918;51.270;6.522;2023-05-28T05:51:39;13.93;;;9.85;;
28762;SDS011;15918;51.270;6.522;2023-05-28T05:54:04;17.50;;;9.70;;
28762;SDS011;15918;51.270;6.522;2023-05-28T05:56:30;20.33;;;9.98;;
28762;SDS011;15918;51.270;6.522;2023-05-28T05:58:57;16.35;;;9.77;;
28762;SDS011;15918;51.270;6.522;2023-05-28T06:01:23;16.33;;;9.07;;
28762;SDS011;15918;51.270;6.522;2023-05-28T06:03:49;15.52;;;9.63;;
28762;SDS011;15918;51.270;6.522;2023-05-28T06:06:14;14.45;;;9.75;;
28762;SDS011;15918;51.270;6.522;2023-05-28T06:08:40;16.23;;;9.73;;
28762;SDS011;15918;51.270;6.522;2023-05-28T06:11:06;18.45;;;9.85;;
28762;SDS011;15918;51.270;6.522;2023-05-28T06:13:32;15.65;;;9.55;;
28762;SDS011;15918;51.270;6.522;2023-05-28T06:15:59;13.85;;;9.13;;
28762;SDS011;15918;51.270;6.522;2023-05-28T06:18:25;20.52;;;9.73;;
28762;SDS011;15918;51.270;6.522;2023-05-28T06:20:51;14.23;;;8.73;;
28762;SDS011;15918;51.270;6.522;2023-05-28T06:23:16;13.93;;;9.00;;
28762;SDS011;15918;51.270;6.522;2023-05-28T06:25:42;16.83;;;9.13;;
28762;SDS011;15918;51.270;6.522;2023-05-28T06:28:09;24.75;;;8.93;;
28762;SDS011;15918;51.270;6.522;2023-05-28T06:30:35;17.38;;;8.77;;
28762;SDS011;15918;51.270;6.522;2023-05-28T06:33:01;17.52;;;9.55;;
28762;SDS011;15918;51.270;6.522;2023-05-28T06:35:26;16.35;;;8.45;;
28762;SDS011;15918;51.270;6.522;2023-05-28T06:37:52;17.00;;;8.70;;
28762;SDS011;15918;51.270;6.522;2023-05-28T06:40:17;16.20;;;9.20;;
28762;SDS011;15918;51.270;6.522;2023-05-28T06:42:43;15.10;;;8.57;;
28762;SDS011;15918;51.270;6.522;2023-05-28T06:45:09;18.85;;;9.02;;
28762;SDS011;15918;51.270;6.522;2023-05-28T06:47:35;19.35;;;9.38;;
28762;SDS011;15918;51.270;6.522;2023-05-28T06:50:01;16.73;;;9.20;;
28762;SDS011;15918;51.270;6.522;2023-05-28T06:52:27;16.80;;;9.73;;
28762;SDS011;15918;51.270;6.522;2023-05-28T06:54:53;17.60;;;9.30;;
28762;SDS011;15918;51.270;6.522;2023-05-28T06:57:19;15.65;;;9.77;;
28762;SDS011;15918;51.270;6.522;2023-05-28T06:59:45;19.63;;;10.02;;
28762;SDS011;15918;51.270;6.522;2023-05-28T07:02:11;18.17;;;9.52;;
28762;SDS011;15918;51.270;6.522;2023-05-28T07:04:36;16.85;;;9.98;;
28762;SDS011;15918;51.270;6.522;2023-05-28T07:07:03;16.52;;;9.18;;
28762;SDS011;15918;51.270;6.522;2023-05-28T07:09:28;15.95;;;9.30;;
28762;SDS011;15918;51.270;6.522;2023-05-28T07:11:54;17.42;;;9.05;;
28762;SDS011;15918;51.270;6.522;2023-05-28T07:14:20;12.88;;;8.73;;
28762;SDS011;15918;51.270;6.522;2023-05-28T07:16:46;18.65;;;9.88;;
28762;SDS011;15918;51.270;6.522;2023-05-28T07:19:11;13.65;;;8.45;;
28762;SDS011;15918;51.270;6.522;2023-05-28T07:21:37;17.58;;;10.65;;
28762;SDS011;15918;51.270;6.522;2023-05-28T07:24:03;17.70;;;9.32;;
28762;SDS011;15918;51.270;6.522;2023-05-28T07:26:31;13.90;;;9.07;;
28762;SDS011;15918;51.270;6.522;2023-05-28T07:29:00;20.17;;;8.88;;
28762;SDS011;15918;51.270;6.522;2023-05-28T07:31:26;18.60;;;9.35;;
28762;SDS011;15918;51.270;6.522;2023-05-28T07:33:53;16.45;;;8.40;;
28762;SDS011;15918;51.270;6.522;2023-05-28T07:36:18;18.08;;;9.80;;
28762;SDS011;15918;51.270;6.522;2023-05-28T07:38:44;20.38;;;10.32;;
28762;SDS011;15918;51.270;6.522;2023-05-28T07:41:10;17.63;;;10.00;;
28762;SDS011;15918;51.270;6.522;2023-05-28T07:43:35;21.10;;;11.40;;
28762;SDS011;15918;51.270;6.522;2023-05-28T07:46:01;22.98;;;12.45;;
28762;SDS011;15918;51.270;6.522;2023-05-28T07:48:26;25.92;;;13.23;;
28762;SDS011;15918;51.270;6.522;2023-05-28T07:50:52;21.50;;;12.23;;
28762;SDS011;15918;51.270;6.522;2023-05-28T07:53:18;20.38;;;11.32;;
28762;SDS011;15918;51.270;6.522;2023-05-28T07:55:44;19.52;;;10.80;;
28762;SDS011;15918;51.270;6.522;2023-05-28T07:58:10;24.20;;;11.60;;
28762;SDS011;15918;51.270;6.522;2023-05-28T08:00:37;21.48;;;10.52;;
28762;SDS011;15918;51.270;6.522;2023-05-28T08:03:04;20.65;;;10.38;;
28762;SDS011;15918;51.270;6.522;2023-05-28T08:05:30;17.67;;;9.77;;
28762;SDS011;15918;51.270;6.522;2023-05-28T08:07:56;19.67;;;9.43;;
28762;SDS011;15918;51.270;6.522;2023-05-28T08:10:22;16.90;;;8.98;;
28762;SDS011;15918;51.270;6.522;2023-05-28T08:12:48;19.13;;;10.02;;
28762;SDS011;15918;51.270;6.522;2023-05-28T08:15:14;15.27;;;8.02;;
28762;SDS011;15918;51.270;6.522;2023-05-28T08:17:40;15.05;;;8.90;;
28762;SDS011;15918;51.270;6.522;2023-05-28T08:20:06;17.05;;;8.75;;
28762;SDS011;15918;51.270;6.522;2023-05-28T08:22:33;18.80;;;9.52;;
28762;SDS011;15918;51.270;6.522;2023-05-28T08:24:59;17.65;;;9.23;;
28762;SDS011;15918;51.270;6.522;2023-05-28T08:27:24;15.32;;;8.25;;
28762;SDS011;15918;51.270;6.522;2023-05-28T08:29:50;16.63;;;7.93;;
28762;SDS011;15918;51.270;6.522;2023-05-28T08:32:15;16.20;;;8.18;;
28762;SDS011;15918;51.270;6.522;2023-05-28T08:34:41;14.73;;;7.85;;
28762;SDS011;15918;51.270;6.522;2023-05-28T08:37:06;17.08;;;9.50;;
28762;SDS011;15918;51.270;6.522;2023-05-28T08:39:32;14.82;;;7.70;;
28762;SDS011;15918;51.270;6.522;2023-05-28T08:41:58;14.88;;;7.57;;
28762;SDS011;15918;51.270;6.522;2023-05-28T08:44:24;13.55;;;7.10;;
28762;SDS011;15918;51.270;6.522;2023-05-28T08:46:49;16.48;;;7.35;;
28762;SDS011;15918;51.270;6.522;2023-05-28T08:49:17;14.98;;;7.07;;
28762;SDS011;15918;51.270;6.522;2023-05-28T08:51:43;13.60;;;6.45;;
28762;SDS011;15918;51.270;6.522;2023-05-28T08:54:09;11.82;;;6.68;;
28762;SDS011;15918;51.270;6.522;2023-05-28T08:56:35;13.40;;;6.75;;
28762;SDS011;15918;51.270;6.522;2023-05-28T08:59:03;14.32;;;7.55;;
28762;SDS011;15918;51.270;6.522;2023-05-28T09:01:29;12.65;;;6.65;;
28762;SDS011;15918;51.270;6.522;2023-05-28T09:03:55;13.80;;;6.70;;
28762;SDS011;15918;51.270;6.522;2023-05-28T09:06:21;18.30;;;7.43;;
28762;SDS011;15918;51.270;6.522;2023-05-28T09:08:49;13.18;;;6.72;;
28762;SDS011;15918;51.270;6.522;2023-05-28T09:11:15;13.10;;;6.45;;
28762;SDS011;15918;51.270;6.522;2023-05-28T09:13:47;12.23;;;6.40;;
28762;SDS011;15918;51.270;6.522;2023-05-28T09:16:20;12.45;;;6.97;;
28762;SDS011;15918;51.270;6.522;2023-05-28T09:19:01;14.15;;;6.90;;
28762;SDS011;15918;51.270;6.522;2023-05-28T09:21:28;15.73;;;7.07;;
28762;SDS011;15918;51.270;6.522;2023-05-28T09:23:54;15.13;;;6.32;;
28762;SDS011;15918;51.270;6.522;2023-05-28T09:26:20;14.65;;;6.28;;
28762;SDS011;15918;51.270;6.522;2023-05-28T09:28:45;12.52;;;6.65;;
28762;SDS011;15918;51.270;6.522;2023-05-28T09:31:11;16.17;;;6.68;;
28762;SDS011;15918;51.270;6.522;2023-05-28T09:33:46;12.05;;;5.80;;
28762;SDS011;15918;51.270;6.522;2023-05-28T09:36:15;14.00;;;6.30;;
28762;SDS011;15918;51.270;6.522;2023-05-28T09:38:42;10.57;;;5.45;;
28762;SDS011;15918;51.270;6.522;2023-05-28T09:41:24;12.75;;;6.20;;
28762;SDS011;15918;51.270;6.522;2023-05-28T09:43:57;14.38;;;6.15;;
28762;SDS011;15918;51.270;6.522;2023-05-28T09:46:30;14.77;;;6.40;;
28762;SDS011;15918;51.270;6.522;2023-05-28T09:48:57;11.18;;;6.65;;
28762;SDS011;15918;51.270;6.522;2023-05-28T09:51:25;15.93;;;5.93;;
28762;SDS011;15918;51.270;6.522;2023-05-28T09:53:57;11.70;;;6.03;;
28762;SDS011;15918;51.270;6.522;2023-05-28T09:56:29;10.23;;;5.95;;
28762;SDS011;15918;51.270;6.522;2023-05-28T09:59:00;14.23;;;5.80;;
28762;SDS011;15918;51.270;6.522;2023-05-28T10:02:32;11.25;;;5.40;;
28762;SDS011;15918;51.270;6.522;2023-05-28T10:04:31;10.30;;;6.15;;
28762;SDS011;15918;51.270;6.522;2023-05-28T10:07:01;15.50;;;6.47;;
28762;SDS011;15918;51.270;6.522;2023-05-28T10:09:33;11.70;;;6.07;;
28762;SDS011;15918;51.270;6.522;2023-05-28T10:14:34;14.43;;;5.72;;
28762;SDS011;15918;51.270;6.522;2023-05-28T10:17:02;15.82;;;5.90;;
28762;SDS011;15918;51.270;6.522;2023-05-28T10:19:28;10.73;;;5.38;;
28762;SDS011;15918;51.270;6.522;2023-05-28T10:21:54;10.70;;;5.60;;
28762;SDS011;15918;51.270;6.522;2023-05-28T10:24:20;14.02;;;5.95;;
28762;SDS011;15918;51.270;6.522;2023-05-28T10:26:47;12.23;;;6.15;;
28762;SDS011;15918;51.270;6.522;2023-05-28T10:29:12;13.52;;;5.70;;
28762;SDS011;15918;51.270;6.522;2023-05-28T10:31:38;14.30;;;6.15;;
28762;SDS011;15918;51.270;6.522;2023-05-28T10:34:14;10.48;;;5.53;;
28762;SDS011;15918;51.270;6.522;2023-05-28T10:36:49;11.40;;;6.35;;
28762;SDS011;15918;51.270;6.522;2023-05-28T10:39:16;13.13;;;6.20;;
28762;SDS011;15918;51.270;6.522;2023-05-28T10:41:41;10.75;;;6.22;;
28762;SDS011;15918;51.270;6.522;2023-05-28T10:44:07;11.90;;;6.25;;
28762;SDS011;15918;51.270;6.522;2023-05-28T10:46:37;14.90;;;5.50;;
28762;SDS011;15918;51.270;6.522;2023-05-28T10:57:15;13.75;;;6.35;;
28762;SDS011;15918;51.270;6.522;2023-05-28T11:02:24;11.60;;;5.35;;
28762;SDS011;15918;51.270;6.522;2023-05-28T11:04:55;12.52;;;5.78;;
28762;SDS011;15918;51.270;6.522;2023-05-28T11:10:10;8.27;;;5.72;;
28762;SDS011;15918;51.270;6.522;2023-05-28T11:12:40;12.38;;;5.85;;
28762;SDS011;15918;51.270;6.522;2023-05-28T11:15:10;8.40;;;5.47;;
28762;SDS011;15918;51.270;6.522;2023-05-28T11:17:37;12.15;;;5.88;;
28762;SDS011;15918;51.270;6.522;2023-05-28T11:20:03;12.15;;;5.32;;
28762;SDS011;15918;51.270;6.522;2023-05-28T11:22:33;10.52;;;5.95;;
28762;SDS011;15918;51.270;6.522;2023-05-28T11:25:06;11.02;;;5.70;;
28762;SDS011;15918;51.270;6.522;2023-05-28T11:27:33;10.85;;;5.28;;
28762;SDS011;15918;51.270;6.522;2023-05-28T11:30:01;10.55;;;5.47;;
28762;SDS011;15918;51.270;6.522;2023-05-28T11:32:28;10.45;;;5.75;;
28762;SDS011;15918;51.270;6.522;2023-05-28T11:34:57;13.00;;;5.30;;
28762;SDS011;15918;51.270;6.522;2023-05-28T11:37:24;11.73;;;5.38;;
28762;SDS011;15918;51.270;6.522;2023-05-28T11:39:55;6.72;;;4.55;;
28762;SDS011;15918;51.270;6.522;2023-05-28T11:42:22;11.13;;;5.00;;
28762;SDS011;15918;51.270;6.522;2023-05-28T11:44:48;12.30;;;5.88;;
28762;SDS011;15918;51.270;6.522;2023-05-28T11:47:15;8.60;;;5.00;;
28762;SDS011;15918;51.270;6.522;2023-05-28T11:49:41;11.13;;;5.07;;
28762;SDS011;15918;51.270;6.522;2023-05-28T11:52:11;9.27;;;5.35;;
28762;SDS011;15918;51.270;6.522;2023-05-28T11:54:38;9.10;;;5.70;;
28762;SDS011;15918;51.270;6.522;2023-05-28T11:57:06;8.95;;;4.97;;
28762;SDS011;15918;51.270;6.522;2023-05-28T11:59:33;8.52;;;5.43;;
28762;SDS011;15918;51.270;6.522;2023-05-28T12:02:12;13.30;;;4.97;;
28762;SDS011;15918;51.270;6.522;2023-05-28T12:04:39;9.13;;;5.32;;
28762;SDS011;15918;51.270;6.522;2023-05-28T12:07:17;8.82;;;5.32;;
28762;SDS011;15918;51.270;6.522;2023-05-28T12:09:42;9.73;;;5.03;;
28762;SDS011;15918;51.270;6.522;2023-05-28T12:12:11;10.27;;;5.32;;
28762;SDS011;15918;51.270;6.522;2023-05-28T12:14:37;11.98;;;5.55;;
28762;SDS011;15918;51.270;6.522;2023-05-28T12:17:07;9.98;;;5.13;;
28762;SDS011;15918;51.270;6.522;2023-05-28T12:19:34;11.73;;;6.05;;
28762;SDS011;15918;51.270;6.522;2023-05-28T12:22:00;10.60;;;5.38;;
28762;SDS011;15918;51.270;6.522;2023-05-28T12:24:27;10.80;;;5.47;;
28762;SDS011;15918;51.270;6.522;2023-05-28T12:26:53;10.38;;;5.20;;
28762;SDS011;15918;51.270;6.522;2023-05-28T12:29:19;11.65;;;6.13;;
28762;SDS011;15918;51.270;6.522;2023-05-28T12:31:45;10.27;;;5.95;;
28762;SDS011;15918;51.270;6.522;2023-05-28T12:34:10;8.35;;;5.18;;
28762;SDS011;15918;51.270;6.522;2023-05-28T12:36:36;12.57;;;5.75;;
28762;SDS011;15918;51.270;6.522;2023-05-28T12:39:02;9.48;;;5.15;;
28762;SDS011;15918;51.270;6.522;2023-05-28T12:41:29;8.60;;;4.85;;
28762;SDS011;15918;51.270;6.522;2023-05-28T12:43:55;8.77;;;5.30;;
28762;SDS011;15918;51.270;6.522;2023-05-28T12:46:21;9.90;;;5.28;;
28762;SDS011;15918;51.270;6.522;2023-05-28T12:48:47;9.43;;;5.70;;
28762;SDS011;15918;51.270;6.522;2023-05-28T12:51:12;7.72;;;5.18;;
28762;SDS011;15918;51.270;6.522;2023-05-28T12:53:39;13.20;;;5.88;;
28762;SDS011;15918;51.270;6.522;2023-05-28T12:56:05;12.57;;;5.93;;
28762;SDS011;15918;51.270;6.522;2023-05-28T12:58:30;9.18;;;5.13;;
28762;SDS011;15918;51.270;6.522;2023-05-28T13:00:56;9.45;;;5.25;;
28762;SDS011;15918;51.270;6.522;2023-05-28T13:03:22;9.30;;;5.65;;
28762;SDS011;15918;51.270;6.522;2023-05-28T13:05:47;10.20;;;5.40;;
28762;SDS011;15918;51.270;6.522;2023-05-28T13:08:13;12.80;;;5.40;;
28762;SDS011;15918;51.270;6.522;2023-05-28T13:10:39;11.35;;;5.88;;
28762;SDS011;15918;51.270;6.522;2023-05-28T13:13:04;11.05;;;5.60;;
28762;SDS011;15918;51.270;6.522;2023-05-28T13:15:30;10.60;;;5.22;;
28762;SDS011;15918;51.270;6.522;2023-05-28T13:17:56;12.75;;;6.07;;
28762;SDS011;15918;51.270;6.522;2023-05-28T13:20:25;9.20;;;4.80;;
28762;SDS011;15918;51.270;6.522;2023-05-28T13:22:51;9.55;;;5.18;;
28762;SDS011;15918;51.270;6.522;2023-05-28T13:25:16;10.63;;;5.20;;
28762;SDS011;15918;51.270;6.522;2023-05-28T13:27:42;10.75;;;5.80;;
28762;SDS011;15918;51.270;6.522;2023-05-28T13:30:08;8.80;;;5.25;;
28762;SDS011;15918;51.270;6.522;2023-05-28T13:32:33;11.82;;;5.78;;
28762;SDS011;15918;51.270;6.522;2023-05-28T13:34:59;8.77;;;5.50;;
28762;SDS011;15918;51.270;6.522;2023-05-28T13:37:25;10.20;;;4.72;;
28762;SDS011;15918;51.270;6.522;2023-05-28T13:39:51;8.65;;;5.78;;
28762;SDS011;15918;51.270;6.522;2023-05-28T13:42:17;11.18;;;4.97;;
28762;SDS011;15918;51.270;6.522;2023-05-28T13:44:44;9.98;;;5.55;;
28762;SDS011;15918;51.270;6.522;2023-05-28T13:47:13;10.93;;;5.60;;
28762;SDS011;15918;51.270;6.522;2023-05-28T13:49:38;7.70;;;5.10;;
28762;SDS011;15918;51.270;6.522;2023-05-28T13:52:04;10.32;;;5.32;;
28762;SDS011;15918;51.270;6.522;2023-05-28T13:54:30;8.82;;;5.40;;
28762;SDS011;15918;51.270;6.522;2023-05-28T13:56:55;10.73;;;5.28;;
28762;SDS011;15918;51.270;6.522;2023-05-28T13:59:21;9.25;;;5.35;;
28762;SDS011;15918;51.270;6.522;2023-05-28T14:01:47;7.90;;;4.88;;
28762;SDS011;15918;51.270;6.522;2023-05-28T14:04:12;7.75;;;4.78;;
28762;SDS011;15918;51.270;6.522;2023-05-28T14:06:38;7.47;;;5.10;;
28762;SDS011;15918;51.270;6.522;2023-05-28T14:09:03;9.32;;;5.13;;
28762;SDS011;15918;51.270;6.522;2023-05-28T14:11:30;15.98;;;5.20;;
28762;SDS011;15918;51.270;6.522;2023-05-28T14:13:56;10.48;;;4.65;;
28762;SDS011;15918;51.270;6.522;2023-05-28T14:16:21;7.35;;;5.05;;
28762;SDS011;15918;51.270;6.522;2023-05-28T14:18:47;14.75;;;5.00;;
28762;SDS011;15918;51.270;6.522;2023-05-28T14:21:12;7.90;;;4.95;;
28762;SDS011;15918;51.270;6.522;2023-05-28T14:23:38;7.15;;;4.82;;
28762;SDS011;15918;51.270;6.522;2023-05-28T14:26:04;12.85;;;4.90;;
28762;SDS011;15918;51.270;6.522;2023-05-28T14:28:29;9.40;;;4.88;;
28762;SDS011;15918;51.270;6.522;2023-05-28T14:30:55;7.88;;;4.57;;
28762;SDS011;15918;51.270;6.522;2023-05-28T14:33:21;12.90;;;5.65;;
28762;SDS011;15918;51.270;6.522;2023-05-28T14:35:46;10.13;;;5.55;;
28762;SDS011;15918;51.270;6.522;2023-05-28T14:38:12;15.45;;;5.15;;
28762;SDS011;15918;51.270;6.522;2023-05-28T14:40:37;9.82;;;4.88;;
28762;SDS011;15918;51.270;6.522;2023-05-28T14:43:03;8.43;;;4.95;;
28762;SDS011;15918;51.270;6.522;2023-05-28T14:45:29;10.80;;;5.28;;
28762;SDS011;15918;51.270;6.522;2023-05-28T14:47:54;7.93;;;4.45;;